| time (UTC) | temp C | wind direction | speed KPH | gust KPH | rain 1hr cm | rain 24hr cm | rain mn cm | humidity % | barometer mb |
| 20260506024037 | 22 | 338 | 9.7 | 16.1 | 0.00 | 0.00 | 0.00 | 35 | 1008.1 |
| 20260506023016 | 22 | 338 | 11.3 | 17.7 | 0.00 | 0.00 | 0.00 | 34 | 1007.9 |
| 20260506022017 | 22 | 338 | 12.9 | 17.7 | 0.00 | 0.00 | 0.00 | 33 | 1007.7 |
| 20260506021016 | 23 | 0 | 14.5 | 24.1 | 0.00 | 0.00 | 0.00 | 32 | 1007.5 |
| 20260506020016 | 23 | 338 | 12.9 | 20.9 | 0.00 | 0.00 | 0.00 | 31 | 1007.6 |
| 20260506015036 | 24 | 338 | 16.1 | 29.0 | 0.00 | 0.00 | 0.00 | 29 | 1007.5 |
| 20260506014036 | 24 | 0 | 16.1 | 25.7 | 0.00 | 0.00 | 0.00 | 30 | 1007.4 |
| 20260506013016 | 24 | 0 | 14.5 | 20.9 | 0.00 | 0.00 | 0.00 | 29 | 1007.2 |
| 20260506012056 | 25 | 0 | 14.5 | 30.6 | 0.00 | 0.00 | 0.00 | 28 | 1006.9 |
| 20260506011037 | 25 | 0 | 16.1 | 25.7 | 0.00 | 0.00 | 0.00 | 28 | 1006.8 |
| 20260506010016 | 25 | 0 | 12.9 | 24.1 | 0.00 | 0.00 | 0.00 | 28 | 1006.5 |
| 20260506005016 | 25 | 0 | 14.5 | 22.5 | 0.00 | 0.00 | 0.00 | 28 | 1006.6 |
| 20260506004016 | 25 | 0 | 17.7 | 29.0 | 0.00 | 0.00 | 0.00 | 27 | 1006.7 |
| 20260506003016 | 26 | 0 | 19.3 | 33.8 | 0.00 | 0.00 | 0.00 | 26 | 1006.7 |
| 20260506002016 | 26 | 0 | 17.7 | 27.4 | 0.00 | 0.00 | 0.00 | 27 | 1006.8 |
| 20260506001016 | 26 | 0 | 17.7 | 27.4 | 0.00 | 0.00 | 0.00 | 27 | 1006.8 |
| 20260506000016 | 26 | 0 | 16.1 | 29.0 | 0.00 | 0.00 | 0.00 | 29 | 1006.9 |
| 20260505235036 | 26 | 0 | 20.9 | 32.2 | 0.00 | 0.00 | 0.00 | 25 | 1006.8 |
| 20260505234016 | 26 | 0 | 14.5 | 27.4 | 0.00 | 0.00 | 0.00 | 28 | 1006.8 |
| 20260505233016 | 26 | 0 | 19.3 | 27.4 | 0.00 | 0.00 | 0.00 | 28 | 1006.9 |
| 20260505232016 | 26 | 23 | 22.5 | 33.8 | 0.00 | 0.00 | 0.00 | 28 | 1007.1 |
| 20260505231016 | 26 | 338 | 14.5 | 25.7 | 0.00 | 0.00 | 0.00 | 27 | 1007.1 |
| 20260505230016 | 26 | 0 | 11.3 | 22.5 | 0.00 | 0.00 | 0.00 | 29 | 1007.1 |
| 20260505225016 | 26 | 0 | 16.1 | 27.4 | 0.00 | 0.00 | 0.00 | 28 | 1007.1 |
| 20260505224016 | 26 | 0 | 14.5 | 20.9 | 0.00 | 0.00 | 0.00 | 29 | 1007.3 |
| 20260505223116 | 26 | 0 | 14.5 | 25.7 | 0.00 | 0.00 | 0.00 | 28 | 1007.1 |
| 20260505222016 | 27 | 0 | 16.1 | 27.4 | 0.00 | 0.00 | 0.00 | 27 | 1007.3 |
| 20260505221018 | 27 | 338 | 12.9 | 19.3 | 0.00 | 0.00 | 0.00 | 27 | 1007.5 |
| 20260505220016 | 27 | 0 | 9.7 | 19.3 | 0.00 | 0.00 | 0.00 | 29 | 1007.6 |
| 20260505215016 | 26 | 23 | 17.7 | 27.4 | 0.00 | 0.00 | 0.00 | 25 | 1007.7 |
| 20260505214016 | 26 | 0 | 16.1 | 24.1 | 0.00 | 0.00 | 0.00 | 23 | 1008.0 |
| 20260505213016 | 27 | 338 | 14.5 | 24.1 | 0.00 | 0.00 | 0.00 | 26 | 1008.0 |
| 20260505212016 | 26 | 0 | 14.5 | 24.1 | 0.00 | 0.00 | 0.00 | 27 | 1008.0 |
| 20260505211036 | 26 | 23 | 8.0 | 19.3 | 0.00 | 0.00 | 0.00 | 28 | 1008.1 |
| 20260505210015 | 26 | 338 | 9.7 | 19.3 | 0.00 | 0.00 | 0.00 | 27 | 1008.3 |
| 20260505205015 | 26 | 338 | 9.7 | 16.1 | 0.00 | 0.00 | 0.00 | 30 | 1008.3 |
| 20260505204016 | 25 | 338 | 8.0 | 17.7 | 0.00 | 0.00 | 0.00 | 29 | 1008.4 |
| 20260505203037 | 25 | 45 | 4.8 | 9.7 | 0.00 | 0.00 | 0.00 | 31 | 1008.3 |
| 20260505202015 | 25 | 45 | 11.3 | 19.3 | 0.00 | 0.00 | 0.00 | 28 | 1008.3 |
| 20260505201015 | 26 | 23 | 8.0 | 24.1 | 0.00 | 0.00 | 0.00 | 31 | 1008.7 |
| 20260505200016 | 26 | 45 | 4.8 | 16.1 | 0.00 | 0.00 | 0.00 | 30 | 1008.6 |
| 20260505195015 | 26 | 45 | 12.9 | 20.9 | 0.00 | 0.00 | 0.00 | 29 | 1008.7 |
| 20260505194055 | 26 | 338 | 9.7 | 17.7 | 0.00 | 0.00 | 0.00 | 30 | 1008.9 |
| 20260505193039 | 26 | 45 | 14.5 | 24.1 | 0.00 | 0.00 | 0.00 | 29 | 1008.9 |
| 20260505192015 | 25 | 338 | 14.5 | 25.7 | 0.00 | 0.00 | 0.00 | 29 | 1008.9 |
| 20260505191015 | 25 | 0 | 16.1 | 24.1 | 0.00 | 0.00 | 0.00 | 29 | 1008.9 |
| 20260505190017 | 25 | 45 | 12.9 | 19.3 | 0.00 | 0.00 | 0.00 | 28 | 1008.9 |
| 20260505185017 | 25 | 45 | 19.3 | 29.0 | 0.00 | 0.00 | 0.00 | 29 | 1008.9 |
| 20260505184018 | 25 | 45 | 14.5 | 20.9 | 0.00 | 0.00 | 0.00 | 29 | 1008.9 |
| 20260505183036 | 25 | 45 | 20.9 | 30.6 | 0.00 | 0.00 | 0.00 | 27 | 1009.0 |
| 20260505182017 | 25 | 45 | 19.3 | 30.6 | 0.00 | 0.00 | 0.00 | 28 | 1009.2 |
| 20260505181017 | 25 | 45 | 9.7 | 19.3 | 0.00 | 0.00 | 0.00 | 32 | 1009.4 |
| 20260505180017 | 24 | 45 | 9.7 | 16.1 | 0.00 | 0.00 | 0.00 | 32 | 1009.4 |
| 20260505175017 | 24 | 23 | 9.7 | 17.7 | 0.00 | 0.00 | 0.00 | 30 | 1009.4 |
| 20260505174017 | 24 | 23 | 9.7 | 20.9 | 0.00 | 0.00 | 0.00 | 33 | 1009.4 |
| 20260505173017 | 24 | 338 | 11.3 | 17.7 | 0.00 | 0.00 | 0.00 | 32 | 1009.5 |
| 20260505172017 | 24 | 0 | 9.7 | 17.7 | 0.00 | 0.00 | 0.00 | 33 | 1009.4 |
| 20260505171017 | 24 | 45 | 11.3 | 19.3 | 0.00 | 0.00 | 0.00 | 31 | 1009.3 |
| 20260505170017 | 24 | 23 | 9.7 | 19.3 | 0.00 | 0.00 | 0.00 | 34 | 1009.1 |
| 20260505165017 | 23 | 45 | 9.7 | 19.3 | 0.00 | 0.00 | 0.00 | 35 | 1009.0 |
| 20260505164017 | 23 | 45 | 12.9 | 19.3 | 0.00 | 0.00 | 0.00 | 33 | 1009.0 |
| 20260505163017 | 23 | 0 | 9.7 | 17.7 | 0.00 | 0.00 | 0.00 | 34 | 1009.2 |
| 20260505162017 | 23 | 45 | 11.3 | 16.1 | 0.00 | 0.00 | 0.00 | 38 | 1009.2 |
| 20260505161017 | 23 | 45 | 6.4 | 14.5 | 0.00 | 0.00 | 0.00 | 37 | 1009.2 |
| 20260505153017 | 22 | 45 | 6.4 | 12.9 | 0.00 | 0.00 | 0.00 | 41 | 1008.9 |
| 20260505152017 | 21 | 225 | 4.8 | 9.7 | 0.00 | 0.00 | 0.00 | 45 | 1008.7 |
| 20260505151017 | 21 | 180 | 3.2 | 9.7 | 0.00 | 0.00 | 0.00 | 43 | 1008.8 |
| 20260505125017 | 15 | 0.0 | 1.6 | 0.00 | 0.00 | 0.00 | 57 | 1007.0 | |
| 20260505124017 | 16 | 0 | 3.2 | 8.0 | 0.00 | 0.00 | 0.00 | 53 | 1007.2 |
| 20260505123016 | 16 | 338 | 6.4 | 12.9 | 0.00 | 0.00 | 0.00 | 53 | 1007.0 |
| 20260505122017 | 16 | 338 | 6.4 | 11.3 | 0.00 | 0.00 | 0.00 | 53 | 1006.9 |
| 20260505121016 | 16 | 338 | 4.8 | 14.5 | 0.00 | 0.00 | 0.00 | 52 | 1007.0 |
| 20260505120017 | 16 | 338 | 3.2 | 4.8 | 0.00 | 0.00 | 0.00 | 53 | 1006.9 |
| 20260505115017 | 16 | 338 | 1.6 | 4.8 | 0.00 | 0.00 | 0.00 | 52 | 1006.8 |
| 20260505114036 | 15 | 0 | 3.2 | 4.8 | 0.00 | 0.00 | 0.00 | 55 | 1006.6 |
| 20260505113016 | 16 | 0 | 3.2 | 8.0 | 0.00 | 0.00 | 0.00 | 53 | 1006.7 |
| 20260505112016 | 16 | 270 | 4.8 | 8.0 | 0.00 | 0.00 | 0.00 | 51 | 1006.5 |
| 20260505111017 | 16 | 0 | 3.2 | 8.0 | 0.00 | 0.00 | 0.00 | 51 | 1006.4 |
| 20260505102016 | 16 | 0.0 | 1.6 | 0.00 | 0.00 | 0.00 | 51 | 1006.0 | |
| 20260505101016 | 16 | 270 | 1.6 | 3.2 | 0.00 | 0.00 | 0.00 | 50 | 1006.1 |
| 20260505100016 | 16 | 338 | 1.6 | 3.2 | 0.00 | 0.00 | 0.00 | 51 | 1005.9 |
| 20260505095016 | 17 | 270 | 1.6 | 4.8 | 0.00 | 0.00 | 0.00 | 49 | 1005.8 |
| 20260505094016 | 17 | 270 | 1.6 | 4.8 | 0.00 | 0.00 | 0.00 | 47 | 1005.8 |
| 20260505093036 | 17 | 315 | 4.8 | 9.7 | 0.00 | 0.00 | 0.00 | 47 | 1005.7 |
| 20260505092016 | 17 | 315 | 9.7 | 16.1 | 0.00 | 0.00 | 0.00 | 47 | 1005.5 |
| 20260505091016 | 17 | 338 | 9.7 | 16.1 | 0.00 | 0.00 | 0.00 | 46 | 1005.5 |
| 20260505090016 | 17 | 0 | 4.8 | 12.9 | 0.00 | 0.00 | 0.00 | 46 | 1005.6 |
| 20260505085016 | 18 | 338 | 12.9 | 20.9 | 0.00 | 0.00 | 0.00 | 44 | 1005.6 |
| 20260505084016 | 18 | 338 | 12.9 | 19.3 | 0.00 | 0.00 | 0.00 | 43 | 1005.6 |
| 20260505083016 | 18 | 338 | 17.7 | 24.1 | 0.00 | 0.00 | 0.00 | 42 | 1005.8 |
| 20260505082036 | 18 | 338 | 11.3 | 19.3 | 0.00 | 0.00 | 0.00 | 42 | 1005.8 |
| 20260505081016 | 18 | 0 | 11.3 | 22.5 | 0.00 | 0.00 | 0.00 | 42 | 1005.8 |
| 20260505080016 | 18 | 338 | 6.4 | 11.3 | 0.00 | 0.00 | 0.00 | 42 | 1005.8 |
| 20260505075016 | 18 | 338 | 9.7 | 14.5 | 0.00 | 0.00 | 0.00 | 42 | 1005.8 |
| 20260505074036 | 18 | 338 | 9.7 | 16.1 | 0.00 | 0.00 | 0.00 | 42 | 1005.9 |
| 20260505073016 | 18 | 0 | 3.2 | 8.0 | 0.00 | 0.00 | 0.00 | 41 | 1005.9 |
| 20260505072016 | 18 | 0 | 8.0 | 12.9 | 0.00 | 0.00 | 0.00 | 41 | 1005.9 |
| 20260505071017 | 18 | 0 | 8.0 | 11.3 | 0.00 | 0.00 | 0.00 | 40 | 1005.8 |
| 20260505070056 | 18 | 0 | 8.0 | 12.9 | 0.00 | 0.00 | 0.00 | 40 | 1005.7 |
| 20260505065016 | 20 | 23 | 14.5 | 24.1 | 0.00 | 0.00 | 0.00 | 38 | 1005.8 |
| 20260505064016 | 20 | 23 | 14.5 | 25.7 | 0.00 | 0.00 | 0.00 | 37 | 1005.5 |
| 20260505063016 | 20 | 45 | 16.1 | 30.6 | 0.00 | 0.00 | 0.00 | 36 | 1005.5 |
| 20260505062056 | 20 | 45 | 12.9 | 22.5 | 0.00 | 0.00 | 0.00 | 37 | 1005.7 |
| 20260505061016 | 20 | 23 | 11.3 | 24.1 | 0.00 | 0.00 | 0.00 | 36 | 1005.5 |
| 20260505060016 | 20 | 23 | 16.1 | 22.5 | 0.00 | 0.00 | 0.00 | 35 | 1005.3 |
| 20260505055017 | 20 | 23 | 14.5 | 22.5 | 0.00 | 0.00 | 0.00 | 35 | 1005.2 |
| 20260505054037 | 20 | 23 | 11.3 | 19.3 | 0.00 | 0.00 | 0.00 | 34 | 1005.1 |
| 20260505053017 | 20 | 23 | 9.7 | 16.1 | 0.00 | 0.00 | 0.00 | 33 | 1005.0 |
| 20260505052017 | 20 | 0 | 9.7 | 17.7 | 0.00 | 0.00 | 0.00 | 33 | 1004.8 |
| 20260505051017 | 20 | 23 | 11.3 | 19.3 | 0.00 | 0.00 | 0.00 | 34 | 1004.8 |
| 20260505041017 | 21 | 0 | 9.7 | 19.3 | 0.00 | 0.00 | 0.00 | 33 | 1004.1 |
| 20260505040017 | 21 | 0 | 8.0 | 16.1 | 0.00 | 0.00 | 0.00 | 33 | 1004.0 |
| 20260505035017 | 21 | 0 | 4.8 | 14.5 | 0.00 | 0.00 | 0.00 | 34 | 1003.7 |
| 20260505034017 | 21 | 0 | 4.8 | 8.0 | 0.00 | 0.00 | 0.00 | 36 | 1003.4 |
| 20260505033017 | 21 | 0 | 3.2 | 8.0 | 0.00 | 0.00 | 0.00 | 36 | 1003.3 |
| 20260505032017 | 21 | 0 | 3.2 | 8.0 | 0.00 | 0.00 | 0.00 | 37 | 1003.0 |
| 20260505031016 | 21 | 0 | 3.2 | 6.4 | 0.00 | 0.00 | 0.00 | 36 | 1002.7 |
| 20260505030017 | 22 | 0 | 6.4 | 11.3 | 0.00 | 0.00 | 0.00 | 34 | 1002.5 |
| 20260505025017 | 23 | 0 | 8.0 | 14.5 | 0.00 | 0.00 | 0.00 | 32 | 1002.5 |